createdAt,value
2022-10-05T00:01:18.755Z,101374.59
2022-10-05T00:03:45.176Z,101370.00
2022-10-05T00:06:11.504Z,101376.22
2022-10-05T00:08:37.744Z,101380.78
2022-10-05T00:11:04.128Z,101376.44
2022-10-05T00:13:30.403Z,101379.16
2022-10-05T00:15:56.799Z,101377.88
2022-10-05T00:18:23.048Z,101365.66
2022-10-05T00:20:49.420Z,101369.19
2022-10-05T00:23:15.688Z,101370.22
2022-10-05T00:25:41.948Z,101368.59
2022-10-05T00:28:08.526Z,101366.50
2022-10-05T00:30:34.812Z,101370.84
2022-10-05T00:33:01.310Z,101373.97
2022-10-05T00:35:27.591Z,101375.63
2022-10-05T00:37:53.921Z,101392.63
2022-10-05T00:40:20.150Z,101384.53
2022-10-05T00:42:46.596Z,101376.31
2022-10-05T00:45:12.963Z,101373.38
2022-10-05T00:47:39.304Z,101370.69
2022-10-05T00:50:05.553Z,101371.28
2022-10-05T00:52:32.007Z,101368.00
2022-10-05T00:54:58.257Z,101359.91
2022-10-05T00:57:24.601Z,101361.78
2022-10-05T00:59:50.847Z,101360.94
2022-10-05T01:02:17.204Z,101360.94
2022-10-05T01:04:43.597Z,101350.16
2022-10-05T01:07:09.863Z,101337.97
2022-10-05T01:09:36.490Z,101329.06
2022-10-05T01:12:02.949Z,101321.56
2022-10-05T01:14:29.413Z,101315.38
2022-10-05T01:16:55.805Z,101322.63
2022-10-05T01:19:22.145Z,101349.34
2022-10-05T01:21:48.589Z,101357.44
2022-10-05T01:24:14.957Z,101363.63
2022-10-05T01:26:41.272Z,101358.50
2022-10-05T01:29:07.635Z,101358.03
2022-10-05T01:31:34.151Z,101357.66
2022-10-05T01:34:00.533Z,101360.94
2022-10-05T01:36:27.010Z,101365.31
2022-10-05T01:38:53.389Z,101369.50
2022-10-05T01:41:19.695Z,101365.13
2022-10-05T01:43:46.131Z,101356.44
2022-10-05T01:46:12.433Z,101357.28
2022-10-05T01:48:38.737Z,101349.78
2022-10-05T01:51:05.085Z,101360.19
2022-10-05T01:53:31.433Z,101347.31
2022-10-05T01:55:57.772Z,101346.72
2022-10-05T01:58:24.083Z,101344.03
2022-10-05T02:00:50.406Z,101333.47
2022-10-05T02:03:16.890Z,101335.94
2022-10-05T02:05:43.265Z,101332.78
2022-10-05T02:08:09.720Z,101330.34
2022-10-05T02:10:36.049Z,101336.75
2022-10-05T02:13:02.421Z,101324.34
2022-10-05T02:15:28.773Z,101327.25
2022-10-05T02:17:55.041Z,101329.13
2022-10-05T02:20:21.378Z,101331.00
2022-10-05T02:22:47.680Z,101343.19
2022-10-05T02:25:13.984Z,101341.56
2022-10-05T02:27:40.281Z,101332.63
2022-10-05T02:30:06.613Z,101340.72
2022-10-05T02:32:32.990Z,101351.50
2022-10-05T02:34:59.566Z,101353.38
2022-10-05T02:37:25.903Z,101351.97
2022-10-05T02:39:52.209Z,101350.28
2022-10-05T02:42:18.520Z,101355.03
2022-10-05T02:44:44.768Z,101355.84
2022-10-05T02:47:11.149Z,101341.78
2022-10-05T02:49:37.408Z,101342.84
2022-10-05T02:52:03.629Z,101337.66
2022-10-05T02:54:30.132Z,101339.91
2022-10-05T02:56:56.389Z,101339.50
2022-10-05T02:59:22.680Z,101343.63
2022-10-05T03:01:49.167Z,101345.75
2022-10-05T03:04:15.473Z,101344.69
2022-10-05T03:06:41.746Z,101337.44
2022-10-05T03:09:08.281Z,101341.63
2022-10-05T03:11:34.620Z,101348.44
2022-10-05T03:14:00.866Z,101351.34
2022-10-05T03:16:27.391Z,101349.50
2022-10-05T03:18:53.778Z,101338.94
2022-10-05T03:21:20.074Z,101347.59
2022-10-05T03:23:46.300Z,101342.22
2022-10-05T03:26:12.551Z,101350.28
2022-10-05T03:28:38.941Z,101342.44
2022-10-05T03:31:05.471Z,101341.63
2022-10-05T03:33:31.736Z,101343.25
2022-10-05T03:35:58.081Z,101342.69
2022-10-05T03:38:24.355Z,101336.25
2022-10-05T03:40:50.600Z,101338.31
2022-10-05T03:43:17.382Z,101335.63
2022-10-05T03:45:44.536Z,101336.09
2022-10-05T03:48:10.925Z,101329.44
2022-10-05T03:50:37.274Z,101320.28
2022-10-05T03:53:04.842Z,101329.22
2022-10-05T03:55:32.298Z,101321.56
2022-10-05T03:57:58.617Z,101325.91
2022-10-05T04:00:24.869Z,101326.50
2022-10-05T04:02:51.373Z,101326.50
2022-10-05T04:05:17.668Z,101311.59
2022-10-05T04:07:43.961Z,101330.22
2022-10-05T04:10:10.242Z,101327.38
2022-10-05T04:12:36.548Z,101321.56
2022-10-05T04:15:02.866Z,101313.25
2022-10-05T04:17:29.098Z,101313.47
2022-10-05T04:19:55.341Z,101312.63
2022-10-05T04:22:21.613Z,101309.94
2022-10-05T04:24:47.869Z,101305.19
2022-10-05T04:27:14.179Z,101306.44
2022-10-05T04:29:40.493Z,101310.16
2022-10-05T04:32:06.826Z,101301.28
2022-10-05T04:34:33.238Z,101304.56
2022-10-05T04:36:59.635Z,101300.59
2022-10-05T04:39:27.736Z,101290.72
2022-10-05T04:41:54.033Z,101292.38
2022-10-05T04:44:20.268Z,101290.28
2022-10-05T04:46:46.836Z,101293.19
2022-10-05T04:49:13.329Z,101292.38
2022-10-05T04:51:40.097Z,101293.00
2022-10-05T04:54:06.352Z,101296.34
2022-10-05T04:56:32.585Z,101306.06
2022-10-05T04:58:58.870Z,101305.84
2022-10-05T05:01:25.237Z,101300.88
2022-10-05T05:03:51.563Z,101299.84
2022-10-05T05:06:18.596Z,101305.25
2022-10-05T05:08:45.186Z,101289.28
2022-10-05T05:11:16.165Z,101287.41
2022-10-05T05:13:44.041Z,101281.00
2022-10-05T05:16:10.397Z,101282.84
2022-10-05T05:18:36.666Z,101282.03
2022-10-05T05:21:03.070Z,101291.13
2022-10-05T05:23:29.374Z,101298.19
2022-10-05T05:25:55.736Z,101309.59
2022-10-05T05:28:22.317Z,101300.44
2022-10-05T05:30:48.621Z,101301.50
2022-10-05T05:33:14.927Z,101294.03
2022-10-05T05:35:41.194Z,101296.50
2022-10-05T05:38:07.486Z,101303.41
2022-10-05T05:40:33.718Z,101304.44
2022-10-05T05:42:59.990Z,101303.63
2022-10-05T05:45:26.516Z,101309.19
2022-10-05T05:47:53.054Z,101316.66
2022-10-05T05:50:19.413Z,101304.66
2022-10-05T05:52:45.814Z,101311.47
2022-10-05T05:55:12.112Z,101313.16
2022-10-05T05:57:38.391Z,101309.00
2022-10-05T06:00:04.620Z,101309.84
2022-10-05T06:02:31.134Z,101308.19
2022-10-05T06:04:57.732Z,101313.59
2022-10-05T06:07:29.433Z,101311.94
2022-10-05T06:09:56.716Z,101304.44
2022-10-05T06:12:23.143Z,101301.75
2022-10-05T06:14:49.631Z,101304.28
2022-10-05T06:17:15.968Z,101293.69
2022-10-05T06:19:42.234Z,101299.50
2022-10-05T06:22:08.557Z,101299.28
2022-10-05T06:24:34.848Z,101298.69
2022-10-05T06:27:01.315Z,101302.19
2022-10-05T06:29:28.086Z,101303.88
2022-10-05T06:31:58.748Z,101306.31
2022-10-05T06:34:25.473Z,101302.81
2022-10-05T06:36:53.081Z,101307.34
2022-10-05T06:39:19.472Z,101303.88
2022-10-05T06:41:46.127Z,101297.41
2022-10-05T06:44:12.417Z,101298.47
2022-10-05T06:46:38.703Z,101295.16
2022-10-05T06:49:05.105Z,101300.34
2022-10-05T06:51:31.734Z,101298.69
2022-10-05T06:53:57.983Z,101307.34
2022-10-05T06:56:24.499Z,101311.69
2022-10-05T06:58:50.777Z,101311.09
2022-10-05T07:01:17.102Z,101318.13
2022-10-05T07:03:43.710Z,101316.50
2022-10-05T07:06:10.503Z,101315.66
2022-10-05T07:08:36.775Z,101315.66
2022-10-05T07:11:03.023Z,101308.63
2022-10-05T07:13:29.385Z,101308.19
2022-10-05T07:15:55.704Z,101313.59
2022-10-05T07:18:22.342Z,101319.56
2022-10-05T07:20:49.416Z,101315.84
2022-10-05T07:23:15.825Z,101312.09
2022-10-05T07:25:42.240Z,101312.31
2022-10-05T07:28:08.672Z,101306.09
2022-10-05T07:30:35.040Z,101308.19
2022-10-05T07:33:01.321Z,101307.75
2022-10-05T07:35:27.641Z,101315.00
2022-10-05T07:37:54.036Z,101314.78
2022-10-05T07:40:21.328Z,101307.34
2022-10-05T07:42:52.123Z,101302.38
2022-10-05T07:45:18.698Z,101303.63
2022-10-05T07:47:45.122Z,101305.28
2022-10-05T07:50:11.492Z,101296.97
2022-10-05T07:52:37.835Z,101309.63
2022-10-05T07:55:04.093Z,101314.16
2022-10-05T07:57:30.429Z,101304.44
2022-10-05T07:59:56.935Z,101304.44
2022-10-05T08:02:23.326Z,101300.91
2022-10-05T08:04:49.765Z,101302.19
2022-10-05T08:07:16.105Z,101301.38
2022-10-05T08:09:42.620Z,101289.34
2022-10-05T08:12:08.937Z,101284.38
2022-10-05T08:14:35.331Z,101295.78
2022-10-05T08:17:01.931Z,101287.09
2022-10-05T08:19:28.217Z,101284.16
2022-10-05T08:21:54.651Z,101286.44
2022-10-05T08:24:20.972Z,101284.16
2022-10-05T08:26:47.292Z,101271.75
2022-10-05T08:29:14.069Z,101287.09
2022-10-05T08:31:40.517Z,101284.03
2022-10-05T08:34:06.852Z,101282.13
2022-10-05T08:36:33.227Z,101286.03
2022-10-05T08:38:59.476Z,101279.44
2022-10-05T08:41:25.749Z,101284.25
2022-10-05T08:43:52.132Z,101275.09
2022-10-05T08:46:18.571Z,101263.91
2022-10-05T08:48:44.948Z,101263.28
2022-10-05T08:51:11.530Z,101268.06
2022-10-05T08:53:37.766Z,101272.84
2022-10-05T08:56:04.068Z,101268.28
2022-10-05T08:58:31.611Z,101267.47
2022-10-05T09:00:57.978Z,101272.84
2022-10-05T09:03:24.305Z,101274.53
2022-10-05T09:05:50.599Z,101265.59
2022-10-05T09:08:16.958Z,101274.53
2022-10-05T09:10:43.350Z,101272.84
2022-10-05T09:13:09.685Z,101268.06
2022-10-05T09:15:35.992Z,101268.06
2022-10-05T09:18:02.327Z,101268.91
2022-10-05T09:20:28.678Z,101264.56
2022-10-05T09:22:55.195Z,101253.78
2022-10-05T09:25:21.599Z,101236.59
2022-10-05T09:27:49.161Z,101249.00
2022-10-05T09:30:15.721Z,101248.38
2022-10-05T09:32:42.165Z,101248.38
2022-10-05T09:35:08.644Z,101248.16
2022-10-05T09:37:35.134Z,101241.72
2022-10-05T09:40:01.710Z,101226.63
2022-10-05T09:42:28.338Z,101232.84
2022-10-05T09:44:54.792Z,101235.06
2022-10-05T09:47:21.062Z,101230.97
2022-10-05T09:49:47.465Z,101229.31
2022-10-05T09:52:18.658Z,101219.38
2022-10-05T09:54:45.354Z,101220.81
2022-10-05T09:57:11.589Z,101206.72
2022-10-05T09:59:38.385Z,101206.50
2022-10-05T10:02:04.820Z,101209.41
2022-10-05T10:04:31.530Z,101204.03
2022-10-05T10:06:57.922Z,101209.41
2022-10-05T10:09:24.192Z,101213.16
2022-10-05T10:11:50.516Z,101210.47
2022-10-05T10:14:16.952Z,101205.91
2022-10-05T10:16:43.546Z,101220.19
2022-10-05T10:19:09.837Z,101215.84
2022-10-05T10:21:36.289Z,101208.59
2022-10-05T10:24:02.557Z,101200.53
2022-10-05T10:26:29.175Z,101201.09
2022-10-05T10:28:55.504Z,101215.63
2022-10-05T10:31:21.896Z,101209.41
2022-10-05T10:33:48.195Z,101220.19
2022-10-05T10:36:14.474Z,101208.59
2022-10-05T10:38:40.967Z,101205.91
2022-10-05T10:41:07.221Z,101208.59
2022-10-05T10:43:33.476Z,101213.78
2022-10-05T10:45:59.855Z,101215.84
2022-10-05T10:48:26.359Z,101203.81
2022-10-05T10:50:52.767Z,101210.25
2022-10-05T10:53:19.105Z,101204.03
2022-10-05T10:55:45.456Z,101202.16
2022-10-05T10:58:15.883Z,101196.78
2022-10-05T11:00:42.606Z,101193.25
2022-10-05T11:03:09.011Z,101190.34
2022-10-05T11:05:35.573Z,101190.56
2022-10-05T11:08:02.039Z,101189.28
2022-10-05T11:10:29.333Z,101177.94
2022-10-05T11:12:55.593Z,101172.69
2022-10-05T11:15:22.135Z,101171.41
2022-10-05T11:17:48.523Z,101158.41
2022-10-05T11:20:14.864Z,101167.28
2022-10-05T11:22:41.468Z,101165.22
2022-10-05T11:25:07.693Z,101167.69
2022-10-05T11:27:34.005Z,101167.69
2022-10-05T11:30:00.308Z,101162.75
2022-10-05T11:32:27.053Z,101163.53
2022-10-05T11:34:53.741Z,101160.84
2022-10-05T11:37:20.102Z,101154.22
2022-10-05T11:39:46.477Z,101159.59
2022-10-05T11:42:12.870Z,101150.69
2022-10-05T11:44:39.260Z,101147.78
2022-10-05T11:47:05.651Z,101149.41
2022-10-05T11:49:32.106Z,101145.88
2022-10-05T11:52:07.381Z,101146.50
2022-10-05T11:54:52.094Z,101150.25
2022-10-05T11:57:21.505Z,101149.00
2022-10-05T11:59:47.966Z,101144.19
2022-10-05T12:02:14.499Z,101136.94
2022-10-05T12:04:40.840Z,101136.09
2022-10-05T12:07:07.185Z,101131.56
2022-10-05T12:09:33.469Z,101130.94
2022-10-05T12:11:59.839Z,101132.84
2022-10-05T12:14:26.077Z,101133.84
2022-10-05T12:16:52.372Z,101138.22
2022-10-05T12:19:18.661Z,101133.03
2022-10-05T12:21:45.053Z,101130.56
2022-10-05T12:24:11.332Z,101125.38
2022-10-05T12:26:37.556Z,101122.69
2022-10-05T12:29:04.046Z,101107.13
2022-10-05T12:31:30.383Z,101102.56
2022-10-05T12:33:56.706Z,101099.28
2022-10-05T12:36:22.988Z,101099.28
2022-10-05T12:38:49.414Z,101098.84
2022-10-05T12:41:15.916Z,101099.28
2022-10-05T12:43:43.406Z,101097.38
2022-10-05T12:46:09.745Z,101098.44
2022-10-05T12:48:36.074Z,101100.34
2022-10-05T12:51:02.570Z,101088.50
2022-10-05T12:53:28.830Z,101092.00
2022-10-05T12:55:55.158Z,101091.19
2022-10-05T12:58:21.430Z,101090.97
2022-10-05T13:00:47.694Z,101090.16
2022-10-05T13:03:14.137Z,101089.09
2022-10-05T13:05:40.490Z,101093.66
2022-10-05T13:08:06.926Z,101085.59
2022-10-05T13:10:33.289Z,101085.38
2022-10-05T13:12:59.540Z,101082.91
2022-10-05T13:15:25.804Z,101086.41
2022-10-05T13:17:52.087Z,101083.69
2022-10-05T13:20:18.523Z,101074.59
2022-10-05T13:22:44.939Z,101075.63
2022-10-05T13:25:11.443Z,101082.66
2022-10-05T13:27:37.696Z,101076.44
2022-10-05T13:30:04.035Z,101068.38
2022-10-05T13:32:31.056Z,101079.97
2022-10-05T13:34:57.642Z,101076.25
2022-10-05T13:37:24.086Z,101079.97
2022-10-05T13:39:50.365Z,101073.56
2022-10-05T13:42:17.058Z,101073.34
2022-10-05T13:44:43.326Z,101073.56
2022-10-05T13:47:10.035Z,101067.94
2022-10-05T13:49:36.692Z,101058.22
2022-10-05T13:52:03.080Z,101067.34
2022-10-05T13:54:29.456Z,101055.72
2022-10-05T13:56:55.776Z,101044.72
2022-10-05T13:59:22.079Z,101052.81
2022-10-05T14:01:48.427Z,101054.72
2022-10-05T14:04:15.043Z,101046.63
2022-10-05T14:06:41.382Z,101044.72
2022-10-05T14:09:07.637Z,101052.81
2022-10-05T14:11:33.943Z,101044.72
2022-10-05T14:14:00.221Z,101034.78
2022-10-05T14:16:27.798Z,101032.94
2022-10-05T14:18:54.207Z,101033.72
2022-10-05T14:21:20.470Z,101031.88
2022-10-05T14:23:46.858Z,101030.25
2022-10-05T14:26:13.271Z,101028.34
2022-10-05T14:28:40.252Z,101031.88
2022-10-05T14:31:06.583Z,101026.47
2022-10-05T14:33:32.869Z,101025.44
2022-10-05T14:35:59.288Z,101024.59
2022-10-05T14:38:25.560Z,101023.78
2022-10-05T14:40:51.964Z,101020.88
2022-10-05T14:43:18.522Z,101019.19
2022-10-05T14:45:44.993Z,101015.47
2022-10-05T14:48:11.322Z,101017.13
2022-10-05T14:50:37.626Z,101010.09
2022-10-05T14:53:03.996Z,101014.41
2022-10-05T14:55:30.523Z,101015.47
2022-10-05T14:57:56.805Z,101017.13
2022-10-05T15:00:23.044Z,101024.16
2022-10-05T15:02:49.389Z,101019.81
2022-10-05T15:05:15.958Z,101024.97
2022-10-05T15:07:42.279Z,101019.59
2022-10-05T15:10:08.630Z,101021.44
2022-10-05T15:12:34.936Z,101024.16
2022-10-05T15:15:01.569Z,101013.38
2022-10-05T15:17:28.073Z,101021.44
2022-10-05T15:19:54.622Z,101018.75
2022-10-05T15:22:21.216Z,101012.53
2022-10-05T15:24:47.555Z,101015.00
2022-10-05T15:27:13.854Z,101016.66
2022-10-05T15:29:40.090Z,101010.66
2022-10-05T15:32:06.487Z,101009.63
2022-10-05T15:34:32.912Z,101007.97
2022-10-05T15:36:59.371Z,101003.41
2022-10-05T15:39:25.743Z,101003.41
2022-10-05T15:41:52.220Z,101009.63
2022-10-05T15:44:18.537Z,100998.03
2022-10-05T15:46:44.833Z,100999.91
2022-10-05T15:49:11.155Z,100989.34
2022-10-05T15:51:37.444Z,100984.78
2022-10-05T15:54:06.791Z,100994.50
2022-10-05T15:56:33.275Z,100989.13
2022-10-05T15:58:59.573Z,100985.59
2022-10-05T16:01:26.177Z,100990.19
2022-10-05T16:03:52.589Z,100978.56
2022-10-05T16:06:19.273Z,100985.59
2022-10-05T16:08:45.565Z,100985.38
2022-10-05T16:11:15.759Z,100996.13
2022-10-05T16:13:45.333Z,100993.44
2022-10-05T16:16:11.844Z,100992.41
2022-10-05T16:18:38.600Z,100992.66
2022-10-05T16:21:04.996Z,100990.75
2022-10-05T16:23:32.975Z,100995.13
2022-10-05T16:25:59.407Z,100988.06
2022-10-05T16:28:26.004Z,100995.13
2022-10-05T16:30:52.789Z,100998.59
2022-10-05T16:33:19.081Z,100992.16
2022-10-05T16:35:45.497Z,100991.34
2022-10-05T16:38:11.780Z,100996.75
2022-10-05T16:40:38.061Z,101005.41
2022-10-05T16:43:04.330Z,101001.06
2022-10-05T16:45:30.614Z,101003.78
2022-10-05T16:47:56.920Z,101003.78
2022-10-05T16:50:23.257Z,100998.38
2022-10-05T16:52:49.727Z,101003.53
2022-10-05T16:55:15.985Z,101000.03
2022-10-05T16:57:42.766Z,100999.00
2022-10-05T17:00:13.423Z,101000.03
2022-10-05T17:02:43.292Z,101011.41
2022-10-05T17:05:10.057Z,101005.41
2022-10-05T17:07:36.516Z,101000.84
2022-10-05T17:10:02.923Z,101000.84
2022-10-05T17:12:29.376Z,101004.38
2022-10-05T17:14:55.782Z,101006.25
2022-10-05T17:17:22.035Z,101006.25
2022-10-05T17:19:48.352Z,101008.09
2022-10-05T17:22:14.657Z,101005.41
2022-10-05T17:24:41.086Z,101002.47
2022-10-05T17:27:07.319Z,101007.88
2022-10-05T17:29:33.605Z,101001.91
2022-10-05T17:31:59.855Z,101000.03
2022-10-05T17:34:26.202Z,101002.47
2022-10-05T17:36:52.533Z,101003.31
2022-10-05T17:39:18.917Z,101008.09
2022-10-05T17:41:45.218Z,101000.84
2022-10-05T17:44:11.624Z,101003.53
2022-10-05T17:46:38.005Z,101008.94
2022-10-05T17:49:04.383Z,101004.38
2022-10-05T17:51:30.788Z,101005.41
2022-10-05T17:53:57.076Z,100999.22
2022-10-05T17:56:23.549Z,101001.91
2022-10-05T17:58:49.800Z,101003.78
2022-10-05T18:01:16.207Z,101002.72
2022-10-05T18:03:42.885Z,101000.25
2022-10-05T18:06:09.271Z,101008.09
2022-10-05T18:08:36.020Z,101006.47
2022-10-05T18:11:02.731Z,101014.53
2022-10-05T18:13:29.069Z,101011.84
2022-10-05T18:15:55.492Z,101008.31
2022-10-05T18:18:21.794Z,101018.88
2022-10-05T18:20:48.019Z,101015.59
2022-10-05T18:23:14.323Z,101009.16
2022-10-05T18:25:40.636Z,101009.38
2022-10-05T18:28:07.017Z,101013.72
2022-10-05T18:30:33.405Z,101016.41
2022-10-05T18:32:59.732Z,101014.53
2022-10-05T18:35:26.014Z,101014.78
2022-10-05T18:37:52.367Z,101018.31
2022-10-05T18:40:18.812Z,101019.09
2022-10-05T18:42:45.336Z,101024.50
2022-10-05T18:45:11.753Z,101016.66
2022-10-05T18:47:38.086Z,101016.66
2022-10-05T18:50:04.842Z,101021.00
2022-10-05T18:52:31.156Z,101027.44
2022-10-05T18:54:57.779Z,101022.63
2022-10-05T18:57:24.228Z,101023.25
2022-10-05T18:59:50.871Z,101026.38
2022-10-05T19:02:17.369Z,101030.13
2022-10-05T19:04:43.704Z,101028.25
2022-10-05T19:07:10.022Z,101027.44
2022-10-05T19:09:36.292Z,101024.75
2022-10-05T19:12:02.615Z,101028.25
2022-10-05T19:14:28.924Z,101039.84
2022-10-05T19:16:55.214Z,101034.47
2022-10-05T19:19:28.243Z,101035.53
2022-10-05T19:21:58.523Z,101027.44
2022-10-05T19:24:24.975Z,101032.84
2022-10-05T19:26:51.363Z,101042.31
2022-10-05T19:34:30.627Z,101045.25
2022-10-05T19:36:57.201Z,101047.94
2022-10-05T19:39:23.550Z,101047.72
2022-10-05T19:41:49.843Z,101052.03
2022-10-05T19:44:16.403Z,101050.19
2022-10-05T19:46:42.779Z,101060.34
2022-10-05T19:49:09.058Z,101054.97
2022-10-05T19:51:35.329Z,101065.97
2022-10-05T19:54:02.502Z,101065.50
2022-10-05T19:56:29.042Z,101061.41
2022-10-05T19:58:55.349Z,101067.59
2022-10-05T20:01:21.760Z,101066.81
2022-10-05T20:03:48.072Z,101072.41
2022-10-05T20:06:14.758Z,101068.66
2022-10-05T20:08:41.077Z,101074.88
2022-10-05T20:11:07.620Z,101063.50
2022-10-05T20:13:34.102Z,101070.56
2022-10-05T20:16:00.679Z,101068.44
2022-10-05T20:18:27.229Z,101070.56
2022-10-05T20:20:53.792Z,101073.81
2022-10-05T20:23:22.147Z,101076.75
2022-10-05T20:25:48.507Z,101077.81
2022-10-05T20:28:14.795Z,101079.44
2022-10-05T20:30:41.061Z,101086.72
2022-10-05T20:33:07.413Z,101092.69
2022-10-05T20:35:33.723Z,101091.84
2022-10-05T20:37:59.988Z,101099.13
2022-10-05T20:40:26.389Z,101112.81
2022-10-05T20:42:52.973Z,101098.28
2022-10-05T20:45:19.278Z,101110.72
2022-10-05T20:47:45.717Z,101114.69
2022-10-05T20:50:11.953Z,101114.25
2022-10-05T20:52:39.417Z,101123.16
2022-10-05T20:55:05.652Z,101120.69
2022-10-05T20:57:31.965Z,101120.69
2022-10-05T20:59:58.524Z,101130.63
2022-10-05T21:02:24.748Z,101125.84
2022-10-05T21:04:51.059Z,101125.63
2022-10-05T21:07:17.415Z,101123.16
2022-10-05T21:09:43.980Z,101127.72
2022-10-05T21:12:10.205Z,101133.94
2022-10-05T21:14:36.430Z,101129.81
2022-10-05T21:17:02.739Z,101136.84
2022-10-05T21:19:29.011Z,101143.88
2022-10-05T21:21:55.281Z,101145.50
2022-10-05T21:24:21.796Z,101150.91
2022-10-05T21:26:48.059Z,101156.28
2022-10-05T21:29:14.381Z,101159.81
2022-10-05T21:31:40.737Z,101167.91
2022-10-05T21:34:07.058Z,101157.34
2022-10-05T21:36:33.368Z,101161.09
2022-10-05T21:38:59.776Z,101158.41
2022-10-05T21:41:26.042Z,101167.53
2022-10-05T21:43:52.301Z,101160.03
2022-10-05T21:46:18.686Z,101169.19
2022-10-05T21:48:45.074Z,101170.00
2022-10-05T21:51:11.364Z,101172.69
2022-10-05T21:53:37.727Z,101179.97
2022-10-05T21:56:04.080Z,101176.22
2022-10-05T21:58:30.738Z,101179.97
2022-10-05T22:00:57.582Z,101180.75
2022-10-05T22:03:23.990Z,101183.22
2022-10-05T22:05:50.346Z,101188.63
2022-10-05T22:08:17.597Z,101185.13
2022-10-05T22:10:44.225Z,101184.28
2022-10-05T22:13:10.611Z,101191.53
2022-10-05T22:15:36.924Z,101187.00
2022-10-05T22:18:03.209Z,101191.78
2022-10-05T22:20:29.902Z,101187.00
2022-10-05T22:22:56.261Z,101184.28
2022-10-05T22:25:22.544Z,101181.00
2022-10-05T22:27:49.010Z,101191.78
2022-10-05T22:30:15.313Z,101190.13
2022-10-05T22:32:41.745Z,101188.25
2022-10-05T22:35:11.486Z,101194.50
2022-10-05T22:37:38.461Z,101198.72
2022-10-05T22:40:04.748Z,101194.00
2022-10-05T22:42:31.024Z,101205.00
2022-10-05T22:44:57.343Z,101205.84
2022-10-05T22:47:23.640Z,101199.88
2022-10-05T22:49:50.144Z,101195.28
2022-10-05T22:52:16.568Z,101199.88
2022-10-05T22:54:42.893Z,101199.63
2022-10-05T22:57:09.195Z,101207.13
2022-10-05T22:59:35.677Z,101207.97
2022-10-05T23:02:02.101Z,101204.44
2022-10-05T23:04:28.495Z,101205.25
2022-10-05T23:06:55.737Z,101203.59
2022-10-05T23:09:22.001Z,101210.66
2022-10-05T23:11:48.568Z,101200.69
2022-10-05T23:14:15.121Z,101207.72
2022-10-05T23:16:41.453Z,101202.56
2022-10-05T23:19:07.959Z,101210.66
2022-10-05T23:21:34.575Z,101211.91
2022-10-05T23:24:01.395Z,101208.97
2022-10-05T23:26:27.864Z,101210.66
2022-10-05T23:28:54.772Z,101208.97
2022-10-05T23:31:21.061Z,101210.66
2022-10-05T23:33:47.344Z,101211.69
2022-10-05T23:36:13.605Z,101212.72
2022-10-05T23:38:39.832Z,101211.69
2022-10-05T23:41:06.149Z,101219.75
2022-10-05T23:43:32.481Z,101215.44
2022-10-05T23:45:58.865Z,101227.25
2022-10-05T23:48:25.650Z,101223.50
2022-10-05T23:50:53.344Z,101223.50
2022-10-05T23:53:19.649Z,101224.13
2022-10-05T23:55:46.069Z,101225.97
2022-10-05T23:58:12.352Z,101224.13
